Time;durP1;ratioP1;P1;durP2;ratioP2;P2;SDS_P1;SDS_P2;PMS_P1;PMS_P2;Temp;Humidity;BMP_temperature;BMP_pressure;BME280_temperature;BME280_humidity;BME280_pressure;Samples;Min_cycle;Max_cycle;Signal;HPM_P1;HPM_P2
2022/12/01 15:03:11;;;;;;;86.47;39.15;;;5.80;87.30;;;;;;5070970;28;20349;-49
2022/12/01 15:05:38;;;;;;;;;;;5.80;87.40;;;;;;5070868;28;20043;-51
2022/12/01 15:08:34;;;;;;;82.22;37.70;;;6.00;86.60;;;;;;5070233;28;19939;-51
2022/12/01 15:11:03;;;;;;;86.07;36.45;;;6.00;86.30;;;;;;5056630;28;20132;-51
2022/12/01 15:13:50;;;;;;;95.35;43.50;;;6.00;86.10;;;;;;5070627;28;20043;-50
2022/12/01 15:16:18;;;;;;;94.07;39.85;;;6.00;86.20;;;;;;5070125;28;20060;-50
2022/12/01 15:18:48;;;;;;;93.50;40.22;;;6.00;86.10;;;;;;5070065;28;20203;-50
2022/12/01 15:21:18;;;;;;;85.07;36.63;;;6.00;86.10;;;;;;5069793;28;20534;-50
2022/12/01 15:24:04;;;;;;;92.13;38.80;;;6.00;86.20;;;;;;5070136;28;20413;-51
2022/12/01 15:26:44;;;;;;;82.30;39.63;;;6.00;86.30;;;;;;5069923;28;20445;-49
2022/12/01 15:29:18;;;;;;;86.50;38.83;;;6.00;86.10;;;;;;5069856;28;20024;-49
2022/12/01 15:31:52;;;;;;;93.00;39.72;;;5.90;85.80;;;;;;5070260;28;20111;-51
2022/12/01 15:34:22;;;;;;;84.10;36.50;;;5.90;85.80;;;;;;5070248;28;20116;-50
2022/12/01 15:36:48;;;;;;;82.53;37.72;;;5.90;85.80;;;;;;5070293;28;20029;-51
2022/12/01 15:39:20;;;;;;;92.68;40.08;;;5.90;85.70;;;;;;5069179;28;20028;-49
2022/12/01 15:41:52;;;;;;;88.40;38.38;;;5.90;85.70;;;;;;5069057;28;20025;-51
2022/12/01 15:44:24;;;;;;;77.60;36.72;;;5.80;85.30;;;;;;5070485;28;20049;-49
2022/12/01 15:46:50;;;;;;;82.03;39.38;;;5.80;85.40;;;;;;5070085;28;20377;-50
2022/12/01 15:49:22;;;;;;;83.57;37.63;;;5.80;85.30;;;;;;5069922;28;20012;-49
2022/12/01 15:51:49;;;;;;;85.68;37.58;;;5.80;85.10;;;;;;5069735;28;20075;-49
2022/12/01 15:54:25;;;;;;;88.45;39.35;;;5.80;85.10;;;;;;5069204;28;20036;-50
2022/12/01 15:56:53;;;;;;;82.60;36.70;;;5.80;85.50;;;;;;5068405;28;20055;-50
2022/12/01 15:59:36;;;;;;;89.03;38.17;;;5.80;86.40;;;;;;5069185;28;20025;-49
2022/12/01 16:02:18;;;;;;;100.03;45.17;;;5.80;86.70;;;;;;5068866;28;20048;-49
2022/12/01 16:04:44;;;;;;;87.32;40.35;;;5.80;86.80;;;;;;5069231;28;20021;-50
2022/12/01 16:07:11;;;;;;;95.78;41.55;;;5.80;86.70;;;;;;5068920;28;20028;-49
2022/12/01 16:09:43;;;;;;;98.53;41.55;;;5.80;87.00;;;;;;5068752;28;20464;-49
2022/12/01 16:12:11;;;;;;;89.00;38.72;;;5.80;86.80;;;;;;5068825;28;20082;-52
2022/12/01 16:14:50;;;;;;;93.78;40.25;;;5.80;86.90;;;;;;5055000;28;20465;-49
2022/12/01 16:17:16;;;;;;;100.47;40.80;;;5.80;86.80;;;;;;5055627;28;20025;-48
2022/12/01 16:19:42;;;;;;;101.50;40.45;;;5.80;86.80;;;;;;5055603;28;20369;-48
2022/12/01 16:22:13;;;;;;;85.72;36.40;;;5.80;86.90;;;;;;5055230;28;20112;-49
2022/12/01 16:24:51;;;;;;;97.07;39.38;;;5.80;86.90;;;;;;5055524;28;20021;-48
2022/12/01 16:27:29;;;;;;;92.57;41.10;;;5.70;86.80;;;;;;5055614;28;20473;-51
2022/12/01 16:30:00;;;;;;;92.78;38.80;;;5.50;86.70;;;;;;5055251;28;20032;-48
2022/12/01 16:32:29;;;;;;;;;;;5.60;86.90;;;;;;5055469;28;20020;-47
2022/12/01 16:34:55;;;;;;;94.10;40.38;;;5.70;86.90;;;;;;5055113;28;20372;-49
2022/12/01 16:37:21;;;;;;;86.90;41.58;;;5.70;86.90;;;;;;5055225;28;20029;-48
2022/12/01 16:39:47;;;;;;;86.85;37.10;;;5.80;86.80;;;;;;5054961;28;20052;-50
2022/12/01 16:42:14;;;;;;;89.45;37.78;;;5.70;86.70;;;;;;5055409;28;20017;-51
2022/12/01 16:44:42;;;;;;;78.63;39.08;;;5.70;86.70;;;;;;5055081;28;20087;-48
2022/12/01 16:47:20;;;;;;;97.95;40.47;;;5.60;86.80;;;;;;5055273;28;20025;-48
2022/12/01 16:49:46;;;;;;;91.85;41.28;;;5.70;86.60;;;;;;5055194;28;20025;-51
2022/12/01 16:52:12;;;;;;;99.57;40.92;;;5.70;86.70;;;;;;5055181;28;20087;-49
2022/12/01 16:54:38;;;;;;;98.50;41.13;;;5.70;86.50;;;;;;5053948;28;20083;-48
2022/12/01 16:57:04;;;;;;;98.72;42.80;;;5.70;86.50;;;;;;5053843;28;20028;-50
2022/12/01 16:59:30;;;;;;;89.22;40.13;;;5.70;86.20;;;;;;5055845;28;20021;-51
2022/12/01 17:01:56;;;;;;;87.30;37.88;;;5.70;86.30;;;;;;5055735;28;20045;-62
2022/12/01 17:04:22;;;;;;;88.50;39.47;;;5.70;86.10;;;;;;5055090;28;20377;-61
2022/12/01 17:06:48;;;;;;;85.47;39.00;;;5.60;85.70;;;;;;5054805;28;20025;-61
2022/12/01 17:09:13;;;;;;;89.93;38.22;;;5.50;85.60;;;;;;5054659;28;20032;-63
2022/12/01 17:11:39;;;;;;;95.38;40.33;;;5.50;85.70;;;;;;5054686;28;20025;-61
2022/12/01 17:14:05;;;;;;;87.47;35.83;;;5.50;85.70;;;;;;5055137;28;20468;-62
2022/12/01 17:16:30;;;;;;;91.30;38.75;;;5.50;85.30;;;;;;5055314;28;20029;-62
2022/12/01 17:18:59;;;;;;;85.57;37.10;;;5.50;85.50;;;;;;5054804;28;20032;-64
2022/12/01 17:21:25;;;;;;;79.90;34.35;;;5.50;85.20;;;;;;5054776;28;20051;-62
2022/12/01 17:23:50;;;;;;;80.70;36.00;;;5.40;84.70;;;;;;5055080;28;20028;-61
2022/12/01 17:26:18;;;;;;;78.15;31.95;;;5.40;84.40;;;;;;5053999;28;20029;-60
2022/12/01 17:28:44;;;;;;;71.82;33.22;;;5.30;83.30;;;;;;5054398;28;20024;-61
2022/12/01 17:31:10;;;;;;;67.28;28.38;;;5.20;83.30;;;;;;5054461;28;20033;-63
2022/12/01 17:33:36;;;;;;;67.97;30.77;;;5.20;83.00;;;;;;5053284;28;20021;-61
2022/12/01 17:36:10;;;;;;;66.38;28.40;;;5.10;83.30;;;;;;5054366;28;20432;-61
2022/12/01 17:38:37;;;;;;;60.58;30.48;;;5.10;83.10;;;;;;5052935;28;20078;-61
2022/12/01 17:41:06;;;;;;;66.15;28.58;;;5.10;83.20;;;;;;5053104;28;20029;-61
2022/12/01 17:43:34;;;;;;;63.63;30.40;;;5.10;82.90;;;;;;5054796;28;20152;-61
2022/12/01 17:46:00;;;;;;;63.22;29.08;;;5.00;82.40;;;;;;5052865;28;20021;-62
2022/12/01 17:48:26;;;;;;;57.35;26.30;;;4.90;82.20;;;;;;5054762;28;20115;-60
2022/12/01 17:50:51;;;;;;;57.17;25.73;;;4.80;82.00;;;;;;5054389;28;20053;-59
2022/12/01 17:53:17;;;;;;;64.68;27.98;;;4.80;82.40;;;;;;5054267;28;20021;-61
2022/12/01 17:55:43;;;;;;;62.75;27.58;;;4.90;82.30;;;;;;5052709;28;20028;-60
2022/12/01 17:58:09;;;;;;;60.90;28.23;;;4.90;82.20;;;;;;5054908;28;20064;-61
2022/12/01 18:00:35;;;;;;;66.15;28.00;;;4.90;82.20;;;;;;5053120;28;20025;-62
2022/12/01 18:03:02;;;;;;;71.68;28.77;;;4.90;82.30;;;;;;5054466;28;20073;-64
2022/12/01 18:05:28;;;;;;;66.53;27.13;;;4.80;82.30;;;;;;5052863;28;20483;-62
2022/12/01 18:07:54;;;;;;;60.35;26.90;;;4.90;82.50;;;;;;5052926;28;20477;-49
2022/12/01 18:10:20;;;;;;;64.10;29.60;;;4.90;82.30;;;;;;5053973;28;20048;-51
2022/12/01 18:12:46;;;;;;;63.05;27.52;;;4.90;82.50;;;;;;5053862;28;20484;-51
2022/12/01 18:15:11;;;;;;;70.10;29.92;;;4.90;82.70;;;;;;5053330;28;20432;-60
2022/12/01 18:17:37;;;;;;;61.50;27.65;;;4.90;82.60;;;;;;5052206;28;20025;-63
2022/12/01 18:20:05;;;;;;;79.47;32.83;;;4.80;82.90;;;;;;5053683;28;20155;-62
2022/12/01 18:22:31;;;;;;;71.70;29.50;;;4.90;83.10;;;;;;5052393;28;20440;-62
2022/12/01 18:24:57;;;;;;;65.72;28.80;;;4.90;82.80;;;;;;5053855;28;20021;-62
2022/12/01 18:27:23;;;;;;;78.22;32.10;;;4.90;82.80;;;;;;5053838;28;20028;-63
2022/12/01 18:29:48;;;;;;;72.18;33.50;;;4.90;82.90;;;;;;5053663;28;20025;-62
2022/12/01 18:32:15;;;;;;;74.47;27.85;;;4.80;83.00;;;;;;5053998;28;20496;-61
2022/12/01 18:34:41;;;;;;;72.38;33.40;;;4.80;83.20;;;;;;5053947;28;20122;-61
2022/12/01 18:37:07;;;;;;;75.57;31.48;;;4.80;83.40;;;;;;5054393;28;20025;-51
2022/12/01 18:39:33;;;;;;;67.85;30.77;;;4.90;83.00;;;;;;5053562;28;20466;-61
2022/12/01 18:41:59;;;;;;;69.63;27.05;;;4.80;83.10;;;;;;5053604;28;20171;-60
2022/12/01 18:44:24;;;;;;;73.22;30.90;;;4.80;83.10;;;;;;5053363;28;20086;-60
2022/12/01 18:46:50;;;;;;;60.78;27.50;;;4.80;83.40;;;;;;5054483;28;20424;-51
2022/12/01 18:49:16;;;;;;;59.78;27.13;;;4.80;83.20;;;;;;5054204;28;20025;-58
2022/12/01 18:51:41;;;;;;;63.47;26.80;;;4.80;83.20;;;;;;5053582;28;20064;-60
2022/12/01 18:54:11;;;;;;;63.92;28.40;;;4.80;83.30;;;;;;5053558;28;20029;-62
2022/12/01 18:56:37;;;;;;;65.28;29.83;;;4.80;83.30;;;;;;5053366;28;20029;-62
2022/12/01 18:59:05;;;;;;;64.45;29.48;;;4.80;83.40;;;;;;5053192;28;20386;-63
2022/12/01 19:01:33;;;;;;;67.93;29.60;;;4.80;83.30;;;;;;5052957;28;20489;-62
2022/12/01 19:04:00;;;;;;;58.92;27.05;;;4.80;83.10;;;;;;5053013;28;20052;-59
2022/12/01 19:06:27;;;;;;;57.03;27.98;;;4.80;83.30;;;;;;5052636;28;20021;-61
2022/12/01 19:08:53;;;;;;;70.32;29.45;;;4.80;83.40;;;;;;5053044;28;20025;-62
2022/12/01 19:11:19;;;;;;;72.78;29.75;;;4.80;83.40;;;;;;5053096;28;20538;-60
2022/12/01 19:13:45;;;;;;;65.32;29.15;;;4.70;83.20;;;;;;5051844;28;20120;-61
2022/12/01 19:16:18;;;;;;;61.65;26.92;;;4.70;83.10;;;;;;5052853;28;20103;-61
2022/12/01 19:18:44;;;;;;;58.63;26.80;;;4.70;83.00;;;;;;5053136;28;20078;-59
2022/12/01 19:21:13;;;;;;;67.03;26.83;;;4.70;82.90;;;;;;5053866;28;20029;-61
2022/12/01 19:23:38;;;;;;;70.20;29.45;;;4.60;82.80;;;;;;5052300;28;20051;-59
2022/12/01 19:26:05;;;;;;;61.35;27.73;;;4.60;82.90;;;;;;5052888;28;20445;-61
2022/12/01 19:28:33;;;;;;;63.20;25.38;;;4.60;82.70;;;;;;5053865;28;20421;-59
2022/12/01 19:30:58;;;;;;;69.88;29.90;;;4.60;82.80;;;;;;5051221;28;20056;-61
2022/12/01 19:33:26;;;;;;;65.40;26.88;;;4.60;82.90;;;;;;5052737;28;20029;-59
2022/12/01 19:35:51;;;;;;;67.97;29.55;;;4.60;82.90;;;;;;5053158;28;20403;-59
2022/12/01 19:38:17;;;;;;;70.28;28.45;;;4.80;82.90;;;;;;5051460;28;20029;-61
2022/12/01 19:40:43;;;;;;;69.22;30.38;;;4.70;82.70;;;;;;5053287;28;20108;-61
2022/12/01 19:43:08;;;;;;;66.70;27.42;;;4.80;83.00;;;;;;5052607;28;20021;-58
2022/12/01 19:45:38;;;;;;;62.38;27.50;;;4.80;82.80;;;;;;5052641;28;20025;-60
2022/12/01 19:48:04;;;;;;;57.67;25.73;;;4.70;82.80;;;;;;5035616;28;20021;-59
2022/12/01 19:50:34;;;;;;;69.10;29.08;;;4.70;83.00;;;;;;5056268;28;20021;-62
2022/12/01 19:53:00;;;;;;;58.38;26.42;;;4.70;83.10;;;;;;5056792;28;20036;-62
2022/12/01 19:55:26;;;;;;;66.65;28.35;;;4.60;83.10;;;;;;5056101;28;20032;-62
2022/12/01 19:57:52;;;;;;;69.22;30.83;;;4.60;83.10;;;;;;5056231;28;20033;-62
2022/12/01 20:00:20;;;;;;;65.35;27.17;;;4.60;83.20;;;;;;5056355;28;20499;-61
2022/12/01 20:02:47;;;;;;;60.08;26.83;;;4.60;83.10;;;;;;5056287;28;20137;-62
2022/12/01 20:05:12;;;;;;;61.28;27.42;;;4.50;82.60;;;;;;5056281;28;20529;-59
2022/12/01 20:07:38;;;;;;;65.13;27.80;;;4.50;82.80;;;;;;5056282;28;20045;-61
2022/12/01 20:10:04;;;;;;;70.38;27.85;;;4.50;82.90;;;;;;5056051;28;20531;-60
2022/12/01 20:12:29;;;;;;;54.55;24.70;;;4.60;82.70;;;;;;5056254;28;20021;-59
2022/12/01 20:14:55;;;;;;;64.38;27.27;;;4.60;82.70;;;;;;5055994;28;20032;-58
2022/12/01 20:17:21;;;;;;;69.63;30.23;;;4.60;82.80;;;;;;5056167;28;20021;-60
2022/12/01 20:19:46;;;;;;;67.25;29.08;;;4.60;83.00;;;;;;5056387;28;20025;-64
2022/12/01 20:22:12;;;;;;;65.43;29.00;;;4.60;82.80;;;;;;5055849;28;20029;-61
2022/12/01 20:24:40;;;;;;;57.53;26.63;;;4.70;82.50;;;;;;5055860;28;20029;-62
2022/12/01 20:27:07;;;;;;;71.88;29.65;;;4.70;82.60;;;;;;5055853;28;20040;-63
2022/12/01 20:29:33;;;;;;;69.75;29.27;;;4.60;82.80;;;;;;5055879;28;20461;-61
2022/12/01 20:32:01;;;;;;;58.88;27.10;;;4.60;82.80;;;;;;5055989;28;20366;-62
2022/12/01 20:34:33;;;;;;;60.83;27.42;;;4.60;83.00;;;;;;5056119;28;20032;-61
2022/12/01 20:36:59;;;;;;;66.28;28.50;;;4.60;83.00;;;;;;5054697;28;20028;-60
2022/12/01 20:39:25;;;;;;;62.92;27.73;;;4.40;82.80;;;;;;5055599;28;20070;-61
2022/12/01 20:41:51;;;;;;;60.20;27.90;;;4.50;82.50;;;;;;5055552;28;20131;-57
2022/12/01 20:44:17;;;;;;;61.60;27.48;;;4.50;82.60;;;;;;5055559;28;20380;-64
2022/12/01 20:46:44;;;;;;;64.70;27.75;;;4.50;82.40;;;;;;5055493;28;20099;-60
2022/12/01 20:49:11;;;;;;;64.88;27.40;;;4.50;82.40;;;;;;5055442;28;20033;-61
2022/12/01 20:51:38;;;;;;;59.30;27.17;;;4.50;82.40;;;;;;5055976;28;20032;-61
2022/12/01 20:54:06;;;;;;;67.03;26.25;;;4.60;82.20;;;;;;5054570;28;20057;-48
2022/12/01 20:56:33;;;;;;;62.05;26.38;;;4.50;82.30;;;;;;5038290;28;20101;-48
2022/12/01 20:58:59;;;;;;;65.30;27.83;;;4.60;82.50;;;;;;5054093;28;20115;-54
